createdAt,value
2023-01-08T00:00:29.732Z,99.90
2023-01-08T00:03:00.220Z,99.90
2023-01-08T00:05:27.569Z,99.90
2023-01-08T00:07:54.896Z,99.90
2023-01-08T00:10:23.486Z,99.90
2023-01-08T00:12:50.660Z,99.90
2023-01-08T00:15:19.207Z,99.90
2023-01-08T00:17:49.026Z,99.90
2023-01-08T00:20:25.200Z,99.90
2023-01-08T00:22:53.007Z,99.90
2023-01-08T00:25:20.875Z,99.90
2023-01-08T00:27:53.068Z,99.90
2023-01-08T00:30:23.235Z,99.90
2023-01-08T00:32:55.816Z,99.90
2023-01-08T00:35:34.893Z,99.90
2023-01-08T00:38:07.932Z,99.90
2023-01-08T00:40:38.622Z,99.90
2023-01-08T00:43:18.352Z,99.90
2023-01-08T00:45:51.986Z,99.90
2023-01-08T00:48:27.794Z,99.90
2023-01-08T00:50:58.475Z,99.90
2023-01-08T00:53:26.953Z,99.90
2023-01-08T00:56:03.864Z,99.90
2023-01-08T00:58:31.177Z,99.90
2023-01-08T01:00:58.534Z,99.90
2023-01-08T01:03:26.458Z,99.90
2023-01-08T01:06:07.296Z,99.90
2023-01-08T01:08:37.854Z,99.90
2023-01-08T01:11:09.003Z,99.90
2023-01-08T01:13:36.419Z,99.90
2023-01-08T01:16:11.038Z,99.90
2023-01-08T01:18:45.331Z,99.90
2023-01-08T01:21:17.609Z,99.90
2023-01-08T01:23:47.843Z,99.90
2023-01-08T01:26:25.941Z,99.90
2023-01-08T01:28:58.688Z,99.90
2023-01-08T01:31:29.561Z,99.90
2023-01-08T01:33:56.964Z,99.90
2023-01-08T01:36:25.760Z,99.90
2023-01-08T01:38:55.507Z,99.90
2023-01-08T01:41:29.283Z,99.90
2023-01-08T01:43:58.677Z,99.90
2023-01-08T01:46:43.971Z,99.90
2023-01-08T01:49:15.768Z,99.90
2023-01-08T01:51:48.419Z,99.90
2023-01-08T01:54:16.764Z,99.90
2023-01-08T01:56:45.616Z,99.90
2023-01-08T01:59:13.683Z,99.90
2023-01-08T02:01:42.822Z,99.90
2023-01-08T02:04:13.156Z,99.90
2023-01-08T02:06:58.332Z,99.90
2023-01-08T02:09:48.794Z,99.90
2023-01-08T02:12:39.421Z,99.90
2023-01-08T02:15:07.085Z,99.90
2023-01-08T02:18:05.447Z,99.90
2023-01-08T02:20:46.767Z,99.90
2023-01-08T02:24:02.057Z,99.90
2023-01-08T02:26:35.417Z,99.90
2023-01-08T02:29:16.259Z,99.90
2023-01-08T02:31:45.417Z,99.90
2023-01-08T02:34:13.849Z,99.90
2023-01-08T02:36:45.157Z,99.90
2023-01-08T02:39:29.580Z,99.90
2023-01-08T02:41:56.866Z,99.90
2023-01-08T02:44:53.127Z,99.90
2023-01-08T02:47:33.884Z,99.90
2023-01-08T02:50:15.546Z,99.90
2023-01-08T02:52:56.713Z,99.90
2023-01-08T02:55:26.503Z,99.90
2023-01-08T02:57:54.014Z,99.90
2023-01-08T03:00:21.840Z,99.90
2023-01-08T03:02:52.560Z,99.90
2023-01-08T03:05:25.459Z,99.90
2023-01-08T03:07:57.037Z,99.90
2023-01-08T03:10:30.433Z,99.90
2023-01-08T03:13:06.065Z,99.90
2023-01-08T03:15:41.206Z,99.90
2023-01-08T03:18:13.500Z,99.90
2023-01-08T03:20:41.345Z,99.90
2023-01-08T03:23:11.302Z,99.90
2023-01-08T03:25:42.260Z,99.90
2023-01-08T03:28:19.948Z,99.90
2023-01-08T03:30:49.364Z,99.90
2023-01-08T03:33:18.112Z,99.90
2023-01-08T03:35:49.909Z,99.90
2023-01-08T03:38:30.010Z,99.90
2023-01-08T03:41:14.305Z,99.90
2023-01-08T03:43:41.570Z,99.90
2023-01-08T03:46:16.675Z,99.90
2023-01-08T03:48:45.032Z,99.90
2023-01-08T03:51:12.310Z,99.90
2023-01-08T03:53:39.534Z,99.90
2023-01-08T03:56:07.043Z,99.90
2023-01-08T03:58:34.426Z,99.90
2023-01-08T04:01:01.786Z,99.90
2023-01-08T04:03:28.980Z,99.90
2023-01-08T04:05:59.108Z,99.90
2023-01-08T04:08:26.368Z,99.90
2023-01-08T04:10:53.567Z,99.90
2023-01-08T04:13:20.734Z,99.90
2023-01-08T04:15:49.839Z,99.90
2023-01-08T04:18:20.102Z,99.90
2023-01-08T04:20:48.384Z,99.90
2023-01-08T04:23:16.667Z,99.90
2023-01-08T04:25:43.964Z,99.90
2023-01-08T04:28:11.354Z,99.90
2023-01-08T04:30:38.597Z,99.90
2023-01-08T04:33:05.981Z,99.90
2023-01-08T04:35:33.334Z,99.90
2023-01-08T04:38:00.593Z,99.90
2023-01-08T04:40:27.834Z,99.90
2023-01-08T04:42:55.136Z,99.90
2023-01-08T04:45:22.657Z,99.90
2023-01-08T04:47:55.487Z,99.90
2023-01-08T04:50:22.858Z,99.90
2023-01-08T04:52:50.064Z,99.90
2023-01-08T04:55:17.424Z,99.90
2023-01-08T04:57:44.992Z,99.90
2023-01-08T05:00:12.905Z,99.90
2023-01-08T05:02:40.239Z,99.90
2023-01-08T05:05:08.015Z,99.90
2023-01-08T05:07:35.255Z,99.90
2023-01-08T05:10:02.339Z,99.90
2023-01-08T05:12:29.501Z,99.90
2023-01-08T05:14:56.807Z,99.90
2023-01-08T05:17:24.087Z,99.90
2023-01-08T05:19:51.357Z,99.90
2023-01-08T05:22:18.701Z,99.90
2023-01-08T05:24:45.807Z,99.90
2023-01-08T05:27:13.090Z,99.90
2023-01-08T05:29:40.228Z,99.90
2023-01-08T05:32:16.592Z,99.90
2023-01-08T05:34:44.449Z,99.90
2023-01-08T05:37:12.297Z,99.90
2023-01-08T05:39:39.563Z,99.90
2023-01-08T05:42:06.727Z,99.90
2023-01-08T05:44:35.953Z,99.90
2023-01-08T05:47:03.223Z,99.90
2023-01-08T05:49:30.439Z,99.90
2023-01-08T05:51:57.959Z,99.90
2023-01-08T05:54:25.253Z,99.90
2023-01-08T05:56:52.566Z,99.90
2023-01-08T05:59:19.863Z,99.90
2023-01-08T06:01:47.268Z,99.90
2023-01-08T06:04:14.609Z,99.90
2023-01-08T06:06:41.938Z,99.90
2023-01-08T06:09:09.518Z,99.90
2023-01-08T06:11:36.698Z,99.90
2023-01-08T06:14:03.962Z,99.90
2023-01-08T06:16:31.250Z,99.90
2023-01-08T06:18:58.478Z,99.90
2023-01-08T06:21:25.813Z,99.90
2023-01-08T06:23:53.066Z,99.90
2023-01-08T06:26:20.364Z,99.90
2023-01-08T06:28:47.700Z,99.90
2023-01-08T06:31:15.005Z,99.90
2023-01-08T06:33:42.204Z,99.90
2023-01-08T06:36:09.476Z,99.90
2023-01-08T06:38:37.701Z,99.90
2023-01-08T06:41:10.344Z,99.90
2023-01-08T06:43:39.009Z,99.90
2023-01-08T06:46:07.304Z,99.90
2023-01-08T06:48:35.054Z,99.90
2023-01-08T06:51:03.545Z,99.90
2023-01-08T06:53:31.078Z,99.90
2023-01-08T06:55:58.941Z,99.90
2023-01-08T06:58:27.870Z,99.90
2023-01-08T07:00:54.987Z,99.90
2023-01-08T07:03:22.229Z,99.90
2023-01-08T07:05:50.921Z,99.90
2023-01-08T07:08:18.868Z,99.90
2023-01-08T07:10:46.110Z,99.90
2023-01-08T07:13:15.856Z,99.90
2023-01-08T07:15:43.402Z,99.90
2023-01-08T07:18:12.158Z,99.90
2023-01-08T07:20:39.612Z,99.90
2023-01-08T07:23:10.719Z,99.90
2023-01-08T07:25:37.919Z,99.90
2023-01-08T07:28:05.354Z,99.90
2023-01-08T07:30:32.648Z,99.90
2023-01-08T07:33:00.795Z,99.90
2023-01-08T07:35:28.360Z,99.90
2023-01-08T07:37:55.819Z,99.90
2023-01-08T07:40:23.701Z,99.90
2023-01-08T07:43:04.262Z,99.90
2023-01-08T07:45:31.479Z,99.90
2023-01-08T07:47:59.222Z,99.90
2023-01-08T07:50:27.664Z,99.90
2023-01-08T07:53:00.973Z,99.90
2023-01-08T07:55:29.766Z,99.90
2023-01-08T07:57:56.991Z,99.90
2023-01-08T08:00:24.184Z,99.90
2023-01-08T08:02:51.468Z,99.90
2023-01-08T08:05:18.716Z,99.90
2023-01-08T08:07:45.876Z,99.90
2023-01-08T08:10:13.102Z,99.90
2023-01-08T08:12:40.186Z,99.90
2023-01-08T08:15:08.496Z,99.90
2023-01-08T08:17:35.610Z,99.90
2023-01-08T08:20:02.777Z,99.90
2023-01-08T08:22:30.568Z,99.90
2023-01-08T08:24:57.845Z,99.90
2023-01-08T08:27:25.069Z,99.90
2023-01-08T08:29:52.256Z,99.90
2023-01-08T08:32:19.433Z,99.90
2023-01-08T08:34:46.540Z,99.90
2023-01-08T08:37:13.872Z,99.90
2023-01-08T08:39:41.102Z,99.90
2023-01-08T08:42:08.201Z,99.90
2023-01-08T08:44:35.370Z,99.90
2023-01-08T08:47:15.976Z,99.90
2023-01-08T08:49:42.999Z,99.90
2023-01-08T08:52:10.140Z,99.90
2023-01-08T08:54:41.574Z,99.90
2023-01-08T08:57:12.979Z,99.90
2023-01-08T08:59:40.129Z,99.90
2023-01-08T09:02:07.956Z,99.90
2023-01-08T09:04:35.341Z,99.90
2023-01-08T09:07:02.751Z,99.90
2023-01-08T09:09:29.963Z,99.90
2023-01-08T09:11:57.341Z,99.90
2023-01-08T09:14:27.031Z,99.90
2023-01-08T09:16:54.225Z,99.90
2023-01-08T09:19:22.898Z,99.90
2023-01-08T09:21:51.002Z,99.90
2023-01-08T09:24:18.244Z,99.90
2023-01-08T09:26:45.420Z,99.90
2023-01-08T09:29:12.617Z,99.90
2023-01-08T09:31:39.709Z,99.90
2023-01-08T09:34:06.876Z,99.90
2023-01-08T09:36:39.241Z,99.90
2023-01-08T09:39:06.878Z,99.90
2023-01-08T09:41:45.295Z,99.90
2023-01-08T09:44:22.748Z,99.90
2023-01-08T09:46:56.122Z,99.90
2023-01-08T09:49:35.417Z,99.90
2023-01-08T09:52:04.875Z,99.90
2023-01-08T09:54:32.705Z,99.90
2023-01-08T09:57:00.617Z,99.90
2023-01-08T09:59:27.853Z,99.90
2023-01-08T10:01:55.190Z,99.90
2023-01-08T10:04:29.988Z,99.90
2023-01-08T10:07:28.001Z,99.90
2023-01-08T10:09:56.240Z,99.90
2023-01-08T10:12:29.713Z,99.90
2023-01-08T10:15:25.650Z,99.90
2023-01-08T10:18:06.725Z,99.90
2023-01-08T10:20:39.514Z,99.90
2023-01-08T10:23:25.876Z,99.90
2023-01-08T10:25:57.347Z,99.90
2023-01-08T10:28:27.111Z,99.90
2023-01-08T10:31:04.403Z,99.90
2023-01-08T10:33:39.023Z,99.90
2023-01-08T10:36:13.220Z,99.90
2023-01-08T10:39:01.435Z,99.90
2023-01-08T10:41:32.330Z,99.90
2023-01-08T10:44:30.898Z,99.90
2023-01-08T10:47:01.307Z,99.00
2023-01-08T10:49:28.743Z,98.50
2023-01-08T10:52:06.399Z,97.80
2023-01-08T10:54:50.230Z,97.30
2023-01-08T10:57:25.675Z,96.90
2023-01-08T11:00:13.230Z,95.40
2023-01-08T11:02:41.002Z,95.30
2023-01-08T11:05:11.760Z,95.40
2023-01-08T11:07:44.305Z,95.10
2023-01-08T11:10:24.405Z,94.50
2023-01-08T11:13:04.282Z,94.00
2023-01-08T11:15:32.997Z,92.90
2023-01-08T11:18:19.831Z,91.20
2023-01-08T11:20:48.009Z,90.50
2023-01-08T11:23:22.601Z,90.40
2023-01-08T11:26:21.630Z,90.60
2023-01-08T11:28:58.825Z,90.00
2023-01-08T11:32:09.173Z,87.00
2023-01-08T11:34:45.328Z,88.50
2023-01-08T11:37:23.879Z,86.60
2023-01-08T11:39:55.224Z,86.50
2023-01-08T11:42:30.494Z,85.90
2023-01-08T11:45:36.740Z,84.60
2023-01-08T11:48:58.258Z,84.20
2023-01-08T11:52:14.887Z,84.60
2023-01-08T11:54:53.138Z,86.30
2023-01-08T11:57:42.790Z,88.40
2023-01-08T12:00:38.941Z,82.30
2023-01-08T12:03:40.773Z,81.60
2023-01-08T12:06:28.275Z,81.50
2023-01-08T12:09:18.369Z,81.20
2023-01-08T12:12:00.508Z,81.40
2023-01-08T12:15:20.712Z,80.10
2023-01-08T12:18:05.918Z,79.80
2023-01-08T12:21:06.617Z,78.80
2023-01-08T12:23:44.549Z,78.30
2023-01-08T12:26:49.728Z,77.60
2023-01-08T12:29:34.336Z,75.50
2023-01-08T12:32:20.123Z,75.70
2023-01-08T12:35:12.368Z,76.00
2023-01-08T12:37:45.717Z,74.60
2023-01-08T12:43:56.676Z,72.80
2023-01-08T12:46:43.095Z,74.60
2023-01-08T12:49:22.549Z,73.40
2023-01-08T12:52:22.594Z,72.00
2023-01-08T12:55:18.052Z,72.10
2023-01-08T12:57:56.670Z,71.60
2023-01-08T13:00:40.084Z,71.70
2023-01-08T13:03:15.353Z,70.00
2023-01-08T13:05:45.672Z,61.80
2023-01-08T13:08:36.997Z,58.20
2023-01-08T13:11:05.760Z,54.80
2023-01-08T13:13:39.804Z,52.50
2023-01-08T13:16:20.442Z,52.60
2023-01-08T13:19:01.876Z,51.00
2023-01-08T13:21:43.369Z,50.40
2023-01-08T13:24:29.909Z,49.00
2023-01-08T13:27:10.183Z,49.80
2023-01-08T13:29:48.779Z,49.90
2023-01-08T13:32:49.879Z,49.20
2023-01-08T13:35:17.220Z,49.60
2023-01-08T13:37:47.755Z,49.50
2023-01-08T13:40:48.132Z,49.60
2023-01-08T13:43:21.536Z,49.10
2023-01-08T13:45:57.046Z,51.10
2023-01-08T13:48:28.076Z,51.60
2023-01-08T13:50:55.898Z,50.90
2023-01-08T13:53:24.465Z,50.90
2023-01-08T13:56:15.938Z,52.20
2023-01-08T13:58:52.786Z,53.10
2023-01-08T14:01:22.063Z,50.90
2023-01-08T14:03:50.452Z,53.90
2023-01-08T14:09:23.951Z,54.90
2023-01-08T14:11:57.876Z,56.20
2023-01-08T14:14:31.260Z,54.30
2023-01-08T14:17:00.031Z,53.70
2023-01-08T14:19:27.770Z,52.70
2023-01-08T14:22:01.810Z,54.40
2023-01-08T14:24:32.496Z,55.60
2023-01-08T14:27:36.246Z,57.10
2023-01-08T14:30:21.860Z,56.10
2023-01-08T14:33:00.127Z,58.40
2023-01-08T14:39:48.654Z,62.00
2023-01-08T14:46:29.906Z,71.60
2023-01-08T14:48:58.358Z,76.70
2023-01-08T14:51:31.296Z,78.90
2023-01-08T14:54:11.571Z,80.50
2023-01-08T14:56:52.767Z,81.80
2023-01-08T14:59:26.907Z,82.40
2023-01-08T15:02:27.935Z,83.40
2023-01-08T15:05:40.911Z,84.70
2023-01-08T15:08:35.248Z,84.10
2023-01-08T15:11:23.918Z,85.80
2023-01-08T15:13:57.511Z,87.30
2023-01-08T15:16:42.654Z,88.80
2023-01-08T15:19:19.391Z,90.30
2023-01-08T15:21:56.192Z,90.90
2023-01-08T15:24:44.712Z,91.50
2023-01-08T15:30:48.198Z,94.00
2023-01-08T15:33:24.902Z,95.60
2023-01-08T15:35:52.342Z,97.60
2023-01-08T15:38:23.962Z,99.00
2023-01-08T15:40:56.288Z,99.90
2023-01-08T15:43:40.282Z,99.90
2023-01-08T15:46:19.186Z,99.90
2023-01-08T15:49:28.767Z,99.90
2023-01-08T15:55:25.853Z,99.90
2023-01-08T15:58:28.996Z,99.90
2023-01-08T16:04:49.804Z,99.90
2023-01-08T16:07:23.423Z,99.90
2023-01-08T16:09:52.755Z,99.90
2023-01-08T16:12:24.960Z,99.90
2023-01-08T16:15:00.227Z,99.90
2023-01-08T16:17:40.903Z,99.90
2023-01-08T16:20:12.090Z,99.90
2023-01-08T16:22:39.861Z,99.90
2023-01-08T16:25:12.510Z,99.90
2023-01-08T16:27:43.161Z,99.90
2023-01-08T16:30:17.922Z,99.90
2023-01-08T16:32:47.287Z,99.90
2023-01-08T16:35:16.459Z,99.90
2023-01-08T16:37:46.280Z,99.90
2023-01-08T16:40:20.504Z,99.90
2023-01-08T16:42:50.988Z,99.90
2023-01-08T16:45:18.408Z,99.90
2023-01-08T16:47:54.477Z,99.90
2023-01-08T16:50:27.967Z,99.90
2023-01-08T16:52:58.275Z,99.90
2023-01-08T16:55:25.651Z,99.90
2023-01-08T16:57:55.604Z,99.90
2023-01-08T17:05:23.350Z,99.90
2023-01-08T17:07:56.263Z,99.90
2023-01-08T17:10:54.592Z,99.90
2023-01-08T17:13:25.317Z,99.90
2023-01-08T17:16:07.580Z,99.90
2023-01-08T17:18:45.616Z,99.90
2023-01-08T17:25:00.143Z,99.90
2023-01-08T17:27:42.320Z,99.90
2023-01-08T17:30:18.004Z,99.90
2023-01-08T17:32:56.910Z,99.90
2023-01-08T17:35:53.385Z,99.90
2023-01-08T17:38:32.615Z,99.90
2023-01-08T17:41:01.913Z,99.90
2023-01-08T17:43:55.258Z,99.90
2023-01-08T17:46:25.760Z,99.90
2023-01-08T17:48:52.964Z,99.90
2023-01-08T17:51:20.262Z,99.90
2023-01-08T17:53:47.574Z,99.90
2023-01-08T17:56:14.732Z,99.90
2023-01-08T17:58:45.893Z,99.90
2023-01-08T18:01:17.235Z,99.90
2023-01-08T18:03:44.575Z,99.90
2023-01-08T18:06:13.735Z,99.90
2023-01-08T18:08:42.173Z,99.90
2023-01-08T18:11:23.016Z,99.90
2023-01-08T18:13:55.702Z,99.90
2023-01-08T18:16:24.263Z,99.90
2023-01-08T18:18:52.431Z,99.90
2023-01-08T18:21:20.047Z,99.90
2023-01-08T18:23:51.303Z,99.90
2023-01-08T18:26:21.069Z,99.90
2023-01-08T18:28:53.732Z,99.90
2023-01-08T18:31:21.668Z,99.90
2023-01-08T18:33:52.959Z,99.90
2023-01-08T18:36:21.055Z,99.90
2023-01-08T18:38:49.867Z,99.90
2023-01-08T18:41:37.675Z,99.90
2023-01-08T18:44:06.869Z,99.90
2023-01-08T18:46:37.875Z,99.90
2023-01-08T18:49:05.298Z,99.90
2023-01-08T18:51:36.408Z,99.90
2023-01-08T18:55:01.097Z,99.90
2023-01-08T18:57:33.898Z,99.90
2023-01-08T19:00:06.590Z,99.90
2023-01-08T19:05:19.961Z,99.90
2023-01-08T19:07:47.158Z,99.90
2023-01-08T19:10:14.574Z,99.90
2023-01-08T19:12:41.839Z,99.90
2023-01-08T19:15:09.645Z,99.90
2023-01-08T19:17:40.101Z,99.90
2023-01-08T19:20:16.031Z,99.90
2023-01-08T19:22:43.344Z,99.90
2023-01-08T19:25:15.098Z,99.90
2023-01-08T19:27:42.491Z,99.90
2023-01-08T19:30:10.692Z,99.90
2023-01-08T19:32:39.428Z,99.90
2023-01-08T19:35:10.052Z,99.90
2023-01-08T19:37:39.141Z,99.90
2023-01-08T19:40:07.444Z,99.90
2023-01-08T19:43:03.842Z,99.90
2023-01-08T19:45:31.176Z,99.90
2023-01-08T19:48:09.671Z,99.90
2023-01-08T19:50:51.350Z,99.90
2023-01-08T19:53:24.174Z,99.90
2023-01-08T19:55:58.025Z,99.90
2023-01-08T19:58:59.159Z,99.90
2023-01-08T20:01:28.219Z,99.90
2023-01-08T20:03:56.633Z,99.90
2023-01-08T20:06:30.651Z,99.90
2023-01-08T20:09:12.646Z,99.90
2023-01-08T20:11:41.048Z,99.90
2023-01-08T20:14:15.113Z,99.90
2023-01-08T20:16:42.962Z,99.90
2023-01-08T20:19:17.013Z,99.90
2023-01-08T20:21:46.799Z,99.90
2023-01-08T20:24:15.092Z,99.90
2023-01-08T20:26:46.705Z,99.90
2023-01-08T20:29:15.559Z,99.90
2023-01-08T20:31:43.943Z,99.90
2023-01-08T20:34:15.397Z,99.90
2023-01-08T20:36:45.413Z,99.90
2023-01-08T20:39:20.287Z,99.90
2023-01-08T20:42:04.285Z,99.90
2023-01-08T20:44:34.548Z,99.90
2023-01-08T20:47:02.207Z,99.90
2023-01-08T20:49:32.249Z,99.90
2023-01-08T20:52:01.799Z,99.90
2023-01-08T20:54:30.193Z,99.90
2023-01-08T20:56:58.602Z,99.90
2023-01-08T20:59:36.806Z,99.90
2023-01-08T21:02:07.744Z,99.90
2023-01-08T21:04:37.979Z,99.90
2023-01-08T21:07:05.948Z,99.90
2023-01-08T21:09:36.145Z,99.90
2023-01-08T21:12:03.467Z,99.90
2023-01-08T21:14:30.685Z,99.90
2023-01-08T21:16:58.033Z,99.90
2023-01-08T21:19:25.390Z,99.90
2023-01-08T21:21:52.609Z,99.90
2023-01-08T21:24:20.761Z,99.90
2023-01-08T21:26:48.930Z,99.90
2023-01-08T21:32:02.082Z,99.90
2023-01-08T21:34:29.282Z,99.90
2023-01-08T21:36:57.109Z,99.90
2023-01-08T21:39:25.832Z,99.90
2023-01-08T21:42:11.411Z,99.90
2023-01-08T21:45:03.453Z,99.90
2023-01-08T21:47:33.385Z,99.90
2023-01-08T21:50:00.522Z,99.90
2023-01-08T21:52:46.222Z,99.90
2023-01-08T21:55:17.048Z,99.90
2023-01-08T21:57:44.612Z,99.90
2023-01-08T22:00:13.696Z,99.90
2023-01-08T22:02:41.501Z,99.90
2023-01-08T22:05:12.275Z,99.90
2023-01-08T22:07:44.648Z,99.90
2023-01-08T22:10:12.573Z,99.90
2023-01-08T22:12:50.814Z,99.90
2023-01-08T22:15:24.586Z,99.90
2023-01-08T22:17:51.659Z,99.90
2023-01-08T22:20:18.979Z,99.90
2023-01-08T22:22:49.388Z,99.90
2023-01-08T22:25:16.614Z,99.90
2023-01-08T22:27:43.791Z,99.90
2023-01-08T22:30:11.471Z,99.90
2023-01-08T22:32:38.611Z,99.90
2023-01-08T22:35:06.067Z,99.90
2023-01-08T22:37:33.279Z,99.90
2023-01-08T22:40:01.083Z,99.90
2023-01-08T22:42:28.192Z,99.90
2023-01-08T22:44:55.378Z,99.90
2023-01-08T22:47:23.605Z,99.90
2023-01-08T22:49:51.122Z,99.90
2023-01-08T22:52:18.404Z,99.90
2023-01-08T22:54:47.093Z,99.90
2023-01-08T22:57:14.397Z,99.90
2023-01-08T22:59:41.627Z,99.90
2023-01-08T23:02:27.604Z,99.90
2023-01-08T23:04:55.249Z,99.90
2023-01-08T23:07:24.146Z,99.90
2023-01-08T23:09:51.609Z,99.90
2023-01-08T23:12:18.842Z,99.90
2023-01-08T23:14:46.217Z,99.90
2023-01-08T23:17:13.350Z,99.90
2023-01-08T23:19:42.085Z,99.90
2023-01-08T23:22:09.227Z,99.90
2023-01-08T23:24:36.762Z,99.90
2023-01-08T23:27:04.050Z,99.90
2023-01-08T23:29:32.306Z,99.90
2023-01-08T23:31:59.617Z,99.90
2023-01-08T23:34:26.933Z,99.90
2023-01-08T23:36:54.113Z,99.90
2023-01-08T23:39:21.997Z,99.90
2023-01-08T23:41:49.142Z,99.90
2023-01-08T23:44:16.941Z,99.90
2023-01-08T23:46:44.080Z,99.90
2023-01-08T23:49:11.443Z,99.90
2023-01-08T23:51:42.276Z,99.90
2023-01-08T23:54:11.121Z,99.90
2023-01-08T23:56:39.493Z,99.90
2023-01-08T23:59:06.783Z,99.90
